Time;durP1;ratioP1;P1;durP2;ratioP2;P2;SDS_P1;SDS_P2;PMS_P1;PMS_P2;Temp;Humidity;BMP_temperature;BMP_pressure;BME280_temperature;BME280_humidity;BME280_pressure;Samples;Min_cycle;Max_cycle;Signal;HPM_P1;HPM_P2
2022/07/02 00:01:29;;;;;;;22.25;3.35;;;;;;;25.06;55.85;100081.88;7309996;19;129620;-37
2022/07/02 00:04:03;;;;;;;24.33;3.17;;;;;;;25.05;57.07;100075.00;7310886;19;129108;-37
2022/07/02 00:06:30;;;;;;;23.27;3.42;;;;;;;25.02;56.52;100075.28;7315494;19;131019;-37
2022/07/02 00:08:55;;;;;;;24.25;3.42;;;;;;;25.03;55.72;100079.56;7317894;19;128986;-37
2022/07/02 00:11:21;;;;;;;19.57;2.70;;;;;;;25.04;56.03;100083.88;7316719;19;129374;-37
2022/07/02 00:13:49;;;;;;;23.37;3.03;;;;;;;24.97;56.25;100074.91;7317666;19;130913;-37
2022/07/02 00:16:14;;;;;;;20.15;3.53;;;;;;;25.03;56.03;100077.78;7317714;19;130258;-37
2022/07/02 00:18:40;;;;;;;16.57;2.70;;;;;;;25.03;55.90;100082.19;7318095;19;129096;-37
2022/07/02 00:21:06;;;;;;;14.90;3.05;;;;;;;24.94;56.39;100064.69;7314817;19;129508;-37
2022/07/02 00:23:32;;;;;;;15.83;2.43;;;;;;;25.03;55.80;100082.19;7317563;19;129435;-38
2022/07/02 00:26:07;;;;;;;12.13;2.43;;;;;;;25.03;56.83;100082.19;7315322;19;130172;-37
2022/07/02 00:28:36;;;;;;;27.73;3.83;;;;;;;25.02;56.02;100077.94;7317535;19;128800;-37
2022/07/02 00:31:02;;;;;;;24.65;3.38;;;;;;;25.02;55.82;100080.56;7315344;19;128895;-37
2022/07/02 00:33:29;;;;;;;23.77;3.17;;;;;;;25.03;56.03;100071.66;7316590;19;129115;-37
2022/07/02 00:35:57;;;;;;;24.52;3.17;;;;;;;25.02;55.92;100070.03;7317726;19;129648;-37
2022/07/02 00:38:22;;;;;;;23.70;3.53;;;;;;;24.96;55.36;100065.34;7316575;19;128872;-37
2022/07/02 00:40:48;;;;;;;31.57;3.80;;;;;;;24.99;55.40;100075.59;7313463;19;129211;-37
2022/07/02 00:43:14;;;;;;;23.73;3.28;;;;;;;25.02;56.10;100080.56;7316790;19;129971;-37
2022/07/02 00:45:40;;;;;;;24.50;3.27;;;;;;;24.94;55.85;100062.06;7316540;19;129119;-37
2022/07/02 00:48:06;;;;;;;27.37;3.60;;;;;;;25.01;55.75;100078.88;7315214;19;130103;-37
2022/07/02 00:50:31;;;;;;;12.47;2.07;;;;;;;25.01;55.94;100078.88;7315959;19;129229;-37
2022/07/02 00:52:57;;;;;;;21.33;3.13;;;;;;;25.01;55.46;100084.16;7313838;19;130933;-37
2022/07/02 00:55:22;;;;;;;9.87;2.23;;;;;;;24.98;55.37;100073.94;7315839;19;129143;-37
2022/07/02 00:57:48;;;;;;;20.00;2.83;;;;;;;25.01;55.72;100078.88;7315447;19;130419;-37
2022/07/02 01:00:18;;;;;;;15.23;2.47;;;;;;;25.00;57.07;100083.34;7316537;19;128908;-37
2022/07/02 01:02:45;;;;;;;28.33;3.70;;;;;;;24.98;54.57;100073.94;7313611;19;129817;-38
2022/07/02 01:05:14;;;;;;;9.35;2.10;;;;;;;25.00;56.21;100079.88;7316770;19;129215;-37
2022/07/02 01:07:41;;;;;;;33.13;4.35;;;;;;;25.00;55.96;100074.63;7315947;19;130246;-37
2022/07/02 01:10:19;;;;;;;23.60;3.47;;;;;;;24.99;55.64;100076.41;7315011;19;129855;-37
2022/07/02 01:12:46;;;;;;;22.65;2.97;;;;;;;24.99;55.12;100078.22;7313777;19;129901;-37
2022/07/02 01:15:12;;;;;;;30.58;3.83;;;;;;;24.92;55.46;100067.47;7313223;19;131044;-37
2022/07/02 01:17:37;;;;;;;28.90;3.83;;;;;;;24.99;55.97;100086.94;7314512;19;129094;-37
2022/07/02 01:20:04;;;;;;;37.47;4.67;;;;;;;25.00;55.88;100082.50;7312447;19;129244;-37
2022/07/02 01:22:37;;;;;;;18.88;2.67;;;;;;;24.99;57.06;100070.34;7314022;19;130630;-37
2022/07/02 01:25:04;;;;;;;4.30;1.80;;;;;;;24.99;55.65;100080.84;7315647;19;129693;-37
2022/07/02 01:27:30;;;;;;;20.90;3.03;;;;;;;24.96;54.89;100076.72;7313055;19;129557;-37
2022/07/02 01:29:55;;;;;;;26.53;4.10;;;;;;;24.99;55.65;100080.84;7314786;19;128982;-37
2022/07/02 01:32:21;;;;;;;24.10;3.23;;;;;;;24.97;55.86;100088.91;7314155;19;129303;-37
2022/07/02 01:35:00;;;;;;;20.90;3.17;;;;;;;24.97;56.70;100088.06;7314711;19;130226;-37
2022/07/02 01:37:25;;;;;;;20.05;3.00;;;;;;;24.96;55.48;100084.59;7315951;19;129167;-37
2022/07/02 01:39:51;;;;;;;39.90;5.00;;;;;;;24.97;55.31;100082.81;7314152;19;129335;-37
2022/07/02 01:42:16;;;;;;;18.40;2.90;;;;;;;24.95;55.72;100080.31;7313371;19;129342;-37
2022/07/02 01:44:43;;;;;;;21.40;3.33;;;;;;;24.95;55.85;100079.50;7315509;19;129755;-37
2022/07/02 01:47:10;;;;;;;11.63;2.38;;;;;;;24.95;55.92;100087.38;7313954;19;128951;-37
2022/07/02 01:49:37;;;;;;;22.42;3.42;;;;;;;24.87;54.90;100071.53;7314537;19;128932;-37
2022/07/02 01:52:04;;;;;;;18.85;2.58;;;;;;;24.92;55.76;100079.78;7311946;19;129007;-37
2022/07/02 01:54:29;;;;;;;9.50;2.08;;;;;;;24.87;55.64;100071.53;7314831;19;130154;-37
2022/07/02 01:56:55;;;;;;;19.00;3.33;;;;;;;24.93;55.59;100086.69;7315313;19;129133;-37
2022/07/02 01:59:21;;;;;;;18.17;2.50;;;;;;;24.86;54.64;100075.94;7315516;19;129200;-37
2022/07/02 02:01:47;;;;;;;12.00;2.50;;;;;;;24.93;55.23;100091.97;7312413;19;130924;-37
2022/07/02 02:04:12;;;;;;;18.47;2.50;;;;;;;24.93;55.91;100082.28;7314234;19;130824;-37
2022/07/02 02:06:39;;;;;;;16.83;2.93;;;;;;;24.91;54.81;100093.91;7311292;19;130866;-37
2022/07/02 02:09:04;;;;;;;21.33;2.80;;;;;;;24.91;55.38;100093.91;7314772;19;129549;-37
2022/07/02 02:11:30;;;;;;;16.08;2.72;;;;;;;24.91;55.64;100096.53;7312237;19;129793;-37
2022/07/02 02:13:59;;;;;;;21.30;2.90;;;;;;;24.90;54.80;100101.00;7315325;19;129092;-37
2022/07/02 02:16:26;;;;;;;15.75;2.72;;;;;;;24.87;55.06;100110.97;7313646;19;129573;-37
2022/07/02 02:18:51;;;;;;;18.08;2.50;;;;;;;24.88;55.79;100104.72;7313440;19;129256;-37
2022/07/02 02:21:17;;;;;;;16.63;2.37;;;;;;;24.88;55.52;100113.47;7311476;19;130919;-37
2022/07/02 02:23:42;;;;;;;23.47;3.27;;;;;;;24.88;55.36;100117.88;7314224;19;130310;-38
2022/07/02 02:26:08;;;;;;;24.47;2.93;;;;;;;24.88;55.56;100117.88;7310693;19;129594;-37
2022/07/02 02:28:33;;;;;;;29.73;3.60;;;;;;;24.87;55.84;100117.06;7311519;19;128890;-37
2022/07/02 02:30:59;;;;;;;27.73;3.65;;;;;;;24.79;55.13;100108.25;7313505;19;129867;-37
2022/07/02 02:33:24;;;;;;;26.13;3.53;;;;;;;24.86;55.30;100128.56;7312944;19;130336;-37
2022/07/02 02:35:50;;;;;;;22.20;2.87;;;;;;;24.85;55.39;100126.06;7313019;19;129947;-37
2022/07/02 02:38:15;;;;;;;16.70;2.73;;;;;;;24.85;54.99;100126.91;7314443;19;128881;-37
2022/07/02 02:40:40;;;;;;;19.83;2.80;;;;;;;24.79;55.04;100126.69;7312331;19;129185;-37
2022/07/02 02:43:06;;;;;;;24.80;3.37;;;;;;;24.81;54.98;100130.00;7314579;19;130427;-37
2022/07/02 02:45:31;;;;;;;25.63;3.47;;;;;;;24.82;55.19;100137.72;7312887;19;129380;-37
2022/07/02 02:47:57;;;;;;;24.57;3.03;;;;;;;24.80;55.50;100139.66;7313070;19;128981;-37
2022/07/02 02:50:22;;;;;;;22.07;2.87;;;;;;;24.76;55.02;100129.59;7312993;19;130325;-37
2022/07/02 02:52:47;;;;;;;22.07;2.80;;;;;;;24.80;55.03;100139.66;7309967;19;129157;-38
2022/07/02 02:55:13;;;;;;;29.47;3.63;;;;;;;24.81;55.28;100143.13;7312382;19;129187;-37
2022/07/02 02:57:38;;;;;;;19.83;2.67;;;;;;;24.81;55.09;100146.56;7312622;19;129471;-37
2022/07/02 03:00:04;;;;;;;38.20;4.00;;;;;;;24.81;55.53;100156.28;7311902;19;130488;-37
2022/07/02 03:02:29;;;;;;;24.73;3.17;;;;;;;24.79;55.80;100152.97;7310601;19;129391;-37
2022/07/02 03:04:55;;;;;;;27.17;3.20;;;;;;;24.67;53.97;100136.53;7309844;19;129296;-37
2022/07/02 03:07:20;;;;;;;32.07;4.07;;;;;;;24.80;54.17;100151.97;7306896;19;129910;-37
2022/07/02 03:09:46;;;;;;;39.22;3.90;;;;;;;24.80;53.33;100157.25;7311618;19;130670;-37
2022/07/02 03:12:11;;;;;;;34.90;3.63;;;;;;;24.79;53.54;100161.66;7310308;19;129350;-38
2022/07/02 03:14:37;;;;;;;23.58;3.00;;;;;;;24.81;53.19;100162.34;7312677;19;130417;-37
2022/07/02 03:17:02;;;;;;;21.10;3.00;;;;;;;24.78;53.51;100167.06;7312693;19;129146;-37
2022/07/02 03:19:28;;;;;;;16.17;2.33;;;;;;;24.79;53.90;100163.50;7312939;19;131733;-37
2022/07/02 03:21:53;;;;;;;23.23;2.73;;;;;;;24.79;52.77;100168.75;7310392;19;129218;-37
2022/07/02 03:24:18;;;;;;;29.70;3.53;;;;;;;24.72;53.44;100159.78;7312391;19;128892;-37
2022/07/02 03:26:44;;;;;;;18.60;2.50;;;;;;;24.76;52.85;100167.22;7311251;19;129743;-37
2022/07/02 03:29:09;;;;;;;20.70;2.78;;;;;;;24.76;53.14;100176.94;7311631;19;129086;-37
2022/07/02 03:31:34;;;;;;;17.73;2.63;;;;;;;24.75;52.10;100172.63;7309925;19;130126;-37
2022/07/02 03:34:00;;;;;;;29.07;3.30;;;;;;;24.78;52.48;100178.44;7311680;19;130268;-37
2022/07/02 03:36:25;;;;;;;16.20;2.23;;;;;;;24.74;52.22;100181.50;7312490;19;129073;-38
2022/07/02 03:38:50;;;;;;;20.83;2.78;;;;;;;24.76;52.82;100184.81;7311284;19;129473;-37
2022/07/02 03:41:16;;;;;;;21.83;2.97;;;;;;;24.72;53.32;100186.06;7314084;19;130532;-37
2022/07/02 03:43:42;;;;;;;18.88;2.50;;;;;;;24.72;53.25;100183.44;7318531;19;128942;-37
2022/07/02 03:46:07;;;;;;;26.27;3.00;;;;;;;24.71;52.68;100187.06;7317278;19;128904;-37
2022/07/02 03:48:32;;;;;;;19.85;3.08;;;;;;;24.70;53.28;100190.66;7319107;19;129119;-37
2022/07/02 03:50:58;;;;;;;18.40;2.60;;;;;;;24.71;52.54;100192.31;7317509;19;130189;-37
2022/07/02 03:53:23;;;;;;;24.63;3.13;;;;;;;24.72;52.50;100199.22;7317666;19;129263;-37
2022/07/02 03:55:48;;;;;;;24.42;3.05;;;;;;;24.71;51.79;100203.66;7318673;19;129628;-37
2022/07/02 03:58:14;;;;;;;18.57;2.43;;;;;;;24.72;52.40;100200.06;7317949;19;129050;-37
2022/07/02 04:00:39;;;;;;;20.48;2.50;;;;;;;24.72;52.16;100196.59;7318727;19;130360;-37
2022/07/02 04:03:05;;;;;;;25.27;3.00;;;;;;;24.65;52.18;100191.06;7318938;19;130068;-37
2022/07/02 04:05:30;;;;;;;12.97;2.23;;;;;;;24.71;52.77;100203.66;7317301;19;129004;-37
2022/07/02 04:07:56;;;;;;;23.60;3.15;;;;;;;24.64;52.08;100194.69;7314542;19;129537;-37
2022/07/02 04:10:21;;;;;;;23.40;2.72;;;;;;;24.69;52.49;100210.03;7317818;19;130446;-37
2022/07/02 04:12:47;;;;;;;13.25;1.75;;;;;;;24.71;52.06;100202.84;7314835;19;129030;-37
2022/07/02 04:15:12;;;;;;;23.70;2.70;;;;;;;24.72;52.64;100207.13;7318776;19;129531;-37
2022/07/02 04:17:38;;;;;;;22.80;2.73;;;;;;;24.71;52.62;100203.66;7316824;19;129421;-37
2022/07/02 04:20:03;;;;;;;35.77;3.97;;;;;;;24.71;52.30;100213.38;7316926;19;129563;-37
2022/07/02 04:22:29;;;;;;;32.30;3.57;;;;;;;24.64;52.10;100202.56;7315404;19;129622;-37
2022/07/02 04:24:55;;;;;;;20.17;2.50;;;;;;;24.70;51.67;100206.44;7317142;19;129340;-37
2022/07/02 04:27:21;;;;;;;18.43;2.43;;;;;;;24.73;51.92;100211.41;7315518;19;129244;-37
2022/07/02 04:29:46;;;;;;;22.30;2.90;;;;;;;24.71;52.04;100208.09;7317125;19;129209;-37
2022/07/02 04:32:11;;;;;;;24.90;2.88;;;;;;;24.69;51.72;100210.03;7315011;19;130988;-37
2022/07/02 04:34:37;;;;;;;18.27;2.40;;;;;;;24.71;52.11;100214.16;7317534;19;129196;-37
2022/07/02 04:37:02;;;;;;;21.03;2.67;;;;;;;24.70;52.46;100214.31;7316326;19;129756;-37
2022/07/02 04:39:28;;;;;;;23.17;2.73;;;;;;;24.70;52.06;100211.69;7317175;19;130159;-37
2022/07/02 04:41:53;;;;;;;24.00;3.03;;;;;;;24.68;51.93;100211.00;7311166;19;129475;-37
2022/07/02 04:44:19;;;;;;;12.73;2.15;;;;;;;24.69;51.79;100210.03;7313882;19;129024;-37
2022/07/02 04:46:44;;;;;;;61.93;6.47;;;;;;;24.68;52.62;100218.88;7314741;19;130623;-38
2022/07/02 04:49:10;;;;;;;18.85;2.47;;;;;;;24.67;51.94;100217.22;7316023;19;129187;-37
2022/07/02 04:51:35;;;;;;;28.92;3.15;;;;;;;24.69;52.59;100225.81;7313963;19;129052;-37
2022/07/02 04:54:01;;;;;;;28.17;3.33;;;;;;;24.68;52.27;100221.50;7313490;19;129456;-37
2022/07/02 04:56:27;;;;;;;14.47;2.17;;;;;;;24.66;51.67;100226.09;7316604;19;129115;-37
2022/07/02 04:58:53;;;;;;;21.25;2.80;;;;;;;24.65;52.47;100224.41;7315028;19;130324;-37
2022/07/02 05:01:19;;;;;;;28.02;3.33;;;;;;;24.66;52.76;100228.72;7312735;19;129761;-38
2022/07/02 05:03:44;;;;;;;16.35;2.38;;;;;;;24.66;52.44;100229.53;7313905;19;129870;-37
2022/07/02 05:06:09;;;;;;;19.70;2.63;;;;;;;24.65;53.02;100229.66;7314835;19;129057;-37
2022/07/02 05:08:35;;;;;;;25.77;3.20;;;;;;;24.64;53.20;100234.13;7314526;19;130136;-41
2022/07/02 05:11:00;;;;;;;24.42;2.78;;;;;;;24.65;52.59;100234.91;7314468;19;129056;-38
2022/07/02 05:13:26;;;;;;;20.75;2.58;;;;;;;24.64;52.50;100243.78;7313366;19;128985;-41
2022/07/02 05:15:52;;;;;;;23.40;2.88;;;;;;;24.59;52.37;100233.72;7315613;19;130368;-40
2022/07/02 05:18:17;;;;;;;13.15;2.47;;;;;;;24.61;53.49;100241.47;7314724;19;129568;-40
2022/07/02 05:20:43;;;;;;;25.85;2.85;;;;;;;24.64;52.70;100238.53;7315225;19;130876;-39
2022/07/02 05:23:08;;;;;;;35.07;3.57;;;;;;;24.64;52.28;100243.78;7315468;19;130729;-40
2022/07/02 05:25:34;;;;;;;18.65;2.15;;;;;;;24.66;51.76;100242.66;7315484;19;130483;-40
2022/07/02 05:27:59;;;;;;;37.33;4.33;;;;;;;24.64;53.94;100249.06;7313105;19;130415;-40
2022/07/02 05:30:25;;;;;;;34.72;3.97;;;;;;;24.66;53.57;100249.75;7313913;19;131364;-36
2022/07/02 05:32:50;;;;;;;26.67;2.90;;;;;;;24.64;53.23;100254.31;7309754;19;129067;-40
2022/07/02 05:35:16;;;;;;;20.03;2.60;;;;;;;24.63;53.61;100257.91;7315670;19;130212;-39
2022/07/02 05:37:41;;;;;;;22.97;2.90;;;;;;;24.64;52.98;100264.84;7316092;19;130386;-39
2022/07/02 05:40:07;;;;;;;19.40;2.50;;;;;;;24.63;53.03;100264.00;7314296;19;130247;-38
2022/07/02 05:42:33;;;;;;;22.67;2.70;;;;;;;24.62;52.24;100264.97;7313246;19;128994;-40
2022/07/02 05:44:58;;;;;;;27.60;3.03;;;;;;;24.64;52.53;100268.31;7313589;19;130577;-38
2022/07/02 05:47:24;;;;;;;11.73;1.70;;;;;;;24.64;52.61;100270.09;7311836;19;130760;-39
2022/07/02 05:49:49;;;;;;;35.03;3.90;;;;;;;24.65;52.47;100275.19;7314740;19;129788;-41
2022/07/02 05:52:17;;;;;;;24.57;3.00;;;;;;;24.65;54.45;100271.72;7312852;19;129203;-41
2022/07/02 05:54:43;;;;;;;23.30;2.97;;;;;;;24.67;53.74;100270.63;7313995;19;130455;-40
2022/07/02 05:57:08;;;;;;;20.83;2.67;;;;;;;24.59;54.10;100261.81;7313527;19;131071;-39
2022/07/02 05:59:33;;;;;;;42.83;4.43;;;;;;;24.66;54.27;100270.78;7313168;19;129529;-40
2022/07/02 06:01:59;;;;;;;24.17;3.13;;;;;;;24.65;53.73;100274.38;7312520;19;129515;-41
2022/07/02 06:04:24;;;;;;;16.57;2.30;;;;;;;24.65;53.75;100271.72;7311036;19;129313;-38
2022/07/02 06:09:33;;;;;;;24.83;2.92;;;;;;;24.66;53.69;100276.84;7312479;19;128929;-38
2022/07/02 06:11:59;;;;;;;6.47;1.23;;;;;;;24.64;54.91;100276.19;7307929;19;130338;-40
2022/07/02 06:14:24;;;;;;;20.30;2.37;;;;;;;24.60;53.88;100266.06;7313190;19;129250;-39
2022/07/02 06:16:50;;;;;;;34.80;3.47;;;;;;;24.68;52.98;100287.25;7313015;19;129728;-40
2022/07/02 06:19:15;;;;;;;31.40;3.43;;;;;;;24.62;53.60;100272.03;7314028;19;129336;-41
2022/07/02 06:21:41;;;;;;;24.57;2.63;;;;;;;24.67;53.16;100288.22;7309984;19;129030;-38
2022/07/02 06:24:09;;;;;;;21.97;2.70;;;;;;;24.66;54.89;100289.19;7312431;19;129609;-41
2022/07/02 06:26:35;;;;;;;57.83;5.80;;;;;;;24.67;52.97;100296.09;7300007;19;130262;-38
2022/07/02 06:29:00;;;;;;;31.03;3.40;;;;;;;24.55;54.70;100286.69;7310165;19;129520;-40
2022/07/02 06:31:26;;;;;;;29.43;3.30;;;;;;;24.64;54.00;100296.38;7309435;19;129202;-41
2022/07/02 06:33:51;;;;;;;39.13;4.32;;;;;;;24.65;53.59;100303.28;7309927;19;129578;-41
2022/07/02 06:36:21;;;;;;;16.80;2.17;;;;;;;24.67;53.92;100303.97;7310876;19;129188;-40
2022/07/02 06:38:47;;;;;;;24.45;2.70;;;;;;;24.66;54.41;100311.03;7310715;19;129495;-39
2022/07/02 06:43:56;;;;;;;38.42;3.95;;;;;;;24.66;53.48;100304.97;7310581;19;129848;-38
2022/07/02 06:46:21;;;;;;;29.03;3.40;;;;;;;24.65;54.42;100311.19;7308324;19;129891;-40
2022/07/02 06:48:46;;;;;;;24.43;2.67;;;;;;;24.61;53.12;100302.75;7311581;19;129125;-41
2022/07/02 06:51:12;;;;;;;33.87;3.60;;;;;;;24.62;53.99;100304.41;7307979;19;128910;-39
2022/07/02 06:53:37;;;;;;;26.02;2.58;;;;;;;24.65;53.95;100298.03;7309492;19;129784;-40
2022/07/02 06:56:03;;;;;;;27.50;3.03;;;;;;;24.63;53.55;100310.47;7310769;19;129152;-40
2022/07/02 06:58:28;;;;;;;29.00;2.90;;;;;;;24.63;53.52;100316.59;7310897;19;129907;-40
2022/07/02 07:00:54;;;;;;;47.07;5.07;;;;;;;24.63;53.59;100313.13;7298817;19;130839;-41
2022/07/02 07:03:19;;;;;;;85.73;7.63;;;;;;;24.64;52.86;100317.41;7287119;19;129742;-37
2022/07/02 07:05:46;;;;;;;18.25;2.22;;;;;;;24.59;53.03;100304.72;7309339;19;129279;-40
2022/07/02 07:08:13;;;;;;;38.72;4.00;;;;;;;24.68;52.94;100309.13;7305616;19;130096;-41
2022/07/02 07:10:38;;;;;;;28.98;2.78;;;;;;;24.64;53.34;100307.75;7308986;19;129923;-40
2022/07/02 07:13:04;;;;;;;29.93;3.00;;;;;;;24.67;53.72;100317.13;7306888;19;129879;-41
2022/07/02 07:15:29;;;;;;;40.97;4.15;;;;;;;24.68;52.90;100324.06;7313975;19;129210;-39
2022/07/02 07:17:55;;;;;;;31.20;3.13;;;;;;;24.59;53.08;100314.38;7315620;19;129468;-39
2022/07/02 07:20:26;;;;;;;44.57;4.10;;;;;;;24.68;53.08;100324.06;7313739;19;129236;-41
2022/07/02 07:22:53;;;;;;;33.92;3.47;;;;;;;24.71;53.29;100323.81;7314059;19;129516;-39
2022/07/02 07:25:19;;;;;;;25.95;2.60;;;;;;;24.70;53.22;100328.22;7313234;19;129660;-42
2022/07/02 07:27:45;;;;;;;33.80;3.38;;;;;;;24.70;52.85;100324.75;7313241;19;129838;-39
2022/07/02 07:30:12;;;;;;;41.40;3.80;;;;;;;24.71;53.11;100324.63;7314447;19;129621;-41
2022/07/02 07:32:38;;;;;;;18.90;2.00;;;;;;;24.70;53.04;100322.13;7314471;19;129523;-38
2022/07/02 07:35:04;;;;;;;15.83;1.90;;;;;;;24.75;52.97;100331.25;7313915;19;129716;-38
2022/07/02 07:37:30;;;;;;;25.48;2.80;;;;;;;24.77;53.27;100339.00;7315912;19;130250;-38
2022/07/02 07:39:55;;;;;;;52.77;5.13;;;;;;;24.79;53.08;100334.44;7315508;19;129267;-37
2022/07/02 07:42:22;;;;;;;38.60;3.88;;;;;;;24.77;52.85;100333.75;7313376;19;129958;-41
2022/07/02 07:44:48;;;;;;;39.92;3.85;;;;;;;24.77;52.65;100325.88;7310124;19;130346;-37
2022/07/02 07:47:14;;;;;;;25.58;2.70;;;;;;;24.76;53.03;100329.47;7312350;19;130138;-40
2022/07/02 07:49:39;;;;;;;57.53;4.90;;;;;;;24.77;53.43;100337.22;7307861;19;129668;-40
2022/07/02 07:52:05;;;;;;;29.17;2.93;;;;;;;24.77;53.67;100328.50;7314341;19;129162;-41
2022/07/02 07:54:30;;;;;;;18.90;2.35;;;;;;;24.74;53.85;100326.16;7316170;19;129793;-40
2022/07/02 07:56:56;;;;;;;24.77;2.80;;;;;;;24.75;53.25;100340.94;7316444;19;129596;-40
2022/07/02 07:59:21;;;;;;;25.53;3.07;;;;;;;24.73;53.80;100332.38;7314821;19;129001;-42
2022/07/02 08:01:47;;;;;;;51.15;5.13;;;;;;;24.72;53.07;100335.97;7310822;19;129440;-40
2022/07/02 08:04:12;;;;;;;26.10;2.80;;;;;;;24.70;54.40;100338.75;7314503;19;129579;-38
2022/07/02 08:06:38;;;;;;;41.17;3.72;;;;;;;24.72;53.60;100335.97;7315056;19;129055;-40
2022/07/02 08:09:04;;;;;;;26.83;2.97;;;;;;;24.70;52.89;100327.41;7316742;19;129111;-40
2022/07/02 08:11:30;;;;;;;35.45;3.70;;;;;;;24.72;54.01;100328.09;7313800;19;130117;-40
2022/07/02 08:13:55;;;;;;;28.05;3.03;;;;;;;24.69;52.71;100325.75;7314891;19;129341;-41
2022/07/02 08:16:20;;;;;;;35.07;3.40;;;;;;;24.72;53.73;100330.72;7316044;19;128997;-42
2022/07/02 08:18:46;;;;;;;25.87;3.00;;;;;;;24.67;54.39;100328.50;7313181;19;129491;-41
2022/07/02 08:21:11;;;;;;;30.80;3.20;;;;;;;24.69;53.12;100325.75;7313860;19;129502;-40
2022/07/02 08:23:37;;;;;;;26.43;3.00;;;;;;;24.70;53.99;100335.28;7314175;19;130396;-41
2022/07/02 08:26:02;;;;;;;39.42;4.15;;;;;;;24.68;53.99;100324.06;7311242;19;129459;-41
2022/07/02 08:28:27;;;;;;;34.60;3.60;;;;;;;24.66;54.53;100321.56;7312438;19;129229;-39
2022/07/02 08:30:53;;;;;;;24.90;2.63;;;;;;;24.68;54.43;100324.06;7314220;19;129799;-41
2022/07/02 08:33:19;;;;;;;27.27;2.78;;;;;;;24.66;53.06;100320.75;7315202;19;130331;-41
2022/07/02 08:35:44;;;;;;;17.70;1.90;;;;;;;24.63;53.57;100321.00;7316455;19;129855;-39
2022/07/02 08:38:10;;;;;;;22.97;2.47;;;;;;;24.67;53.69;100317.13;7315194;19;129541;-38
2022/07/02 08:40:36;;;;;;;35.00;3.45;;;;;;;24.68;52.71;100308.28;7313934;19;129773;-38
2022/07/02 08:43:03;;;;;;;10.13;1.77;;;;;;;24.56;53.78;100304.97;7311933;19;129338;-40
2022/07/02 08:45:31;;;;;;;21.98;2.28;;;;;;;24.64;52.74;100317.41;7315931;19;130416;-40
2022/07/02 08:47:58;;;;;;;24.42;2.47;;;;;;;24.58;53.91;100313.53;7312883;19;130507;-41
2022/07/02 08:50:24;;;;;;;23.23;2.40;;;;;;;24.61;52.73;100317.72;7313757;19;131354;-40
2022/07/02 08:52:53;;;;;;;18.38;2.10;;;;;;;24.60;53.73;100318.66;7313160;19;129286;-42
2022/07/02 08:55:20;;;;;;;25.27;2.63;;;;;;;24.61;52.32;100318.50;7314565;19;130007;-40
2022/07/02 08:57:47;;;;;;;25.70;2.50;;;;;;;24.62;52.40;100324.63;7315120;19;129214;-41
2022/07/02 09:00:14;;;;;;;23.08;2.45;;;;;;;24.62;53.66;100335.13;7314065;19;130555;-40
2022/07/02 09:02:41;;;;;;;20.13;2.40;;;;;;;24.60;52.70;100322.13;7313356;19;129755;-41
2022/07/02 09:05:09;;;;;;;20.98;2.15;;;;;;;24.60;52.06;100321.28;7315108;19;128856;-40
2022/07/02 09:07:37;;;;;;;25.90;2.58;;;;;;;24.52;54.08;100308.03;7313410;19;129403;-40
2022/07/02 09:10:03;;;;;;;46.47;4.65;;;;;;;24.63;52.56;100321.00;7313273;19;129464;-38
2022/07/02 09:12:29;;;;;;;21.90;2.30;;;;;;;24.61;52.72;100322.97;7312835;19;129284;-41
2022/07/02 09:14:55;;;;;;;13.73;1.95;;;;;;;24.61;53.25;100312.44;7314359;19;130891;-38
2022/07/02 09:17:20;;;;;;;40.00;3.83;;;;;;;24.64;51.80;100309.53;7312655;19;129355;-42
2022/07/02 09:19:45;;;;;;;20.92;2.30;;;;;;;24.61;53.62;100301.94;7314174;19;129909;-38
2022/07/02 09:22:12;;;;;;;24.48;2.70;;;;;;;24.61;52.58;100312.44;7312059;19;130429;-38
2022/07/02 09:24:42;;;;;;;20.83;2.50;;;;;;;24.58;53.38;100303.03;7313158;19;129020;-39
2022/07/02 09:27:12;;;;;;;30.40;3.17;;;;;;;24.59;52.73;100309.13;7310756;19;130281;-38
2022/07/02 09:29:46;;;;;;;25.05;2.63;;;;;;;24.62;54.60;100301.78;7313763;19;129402;-41
2022/07/02 09:32:12;;;;;;;24.63;2.58;;;;;;;24.54;52.03;100291.16;7312112;19;131317;-42
2022/07/02 09:34:48;;;;;;;42.25;4.05;;;;;;;24.60;54.81;100300.25;7312673;19;128948;-38
2022/07/02 09:37:21;;;;;;;38.22;3.70;;;;;;;24.60;54.81;100300.25;7310906;19;129362;-38
2022/07/02 09:39:48;;;;;;;32.35;3.28;;;;;;;24.58;53.54;100291.72;7311731;19;130142;-40
2022/07/02 09:42:31;;;;;;;33.58;3.15;;;;;;;24.61;55.10;100296.66;7310997;19;130321;-39
2022/07/02 09:44:58;;;;;;;31.17;3.05;;;;;;;24.60;51.92;100303.72;7313283;19;128870;-40
2022/07/02 09:47:41;;;;;;;25.90;2.47;;;;;;;24.61;54.47;100301.94;7310565;19;129853;-39
2022/07/02 09:50:11;;;;;;;25.35;2.70;;;;;;;24.61;53.58;100308.00;7312810;19;129473;-41
2022/07/02 09:52:50;;;;;;;34.47;3.03;;;;;;;24.59;54.57;100302.06;7310594;19;129404;-40
2022/07/02 09:55:30;;;;;;;35.55;3.28;;;;;;;24.59;53.82;100299.44;7312881;19;129989;-41
2022/07/02 09:58:01;;;;;;;28.55;2.88;;;;;;;24.53;52.64;100288.66;7311888;19;128946;-41
2022/07/02 10:00:29;;;;;;;28.40;2.85;;;;;;;24.55;51.08;100298.06;7311899;19;129786;-38
2022/07/02 10:02:56;;;;;;;18.17;1.85;;;;;;;24.58;51.37;100286.44;7310879;19;131301;-36
2022/07/02 10:05:33;;;;;;;19.98;2.45;;;;;;;24.57;54.46;100295.28;7313009;19;130306;-40
2022/07/02 10:08:00;;;;;;;18.45;2.35;;;;;;;24.48;52.66;100285.63;7311356;19;130080;-37
2022/07/02 10:10:41;;;;;;;21.50;2.30;;;;;;;24.56;54.17;100289.19;7309256;19;129898;-41
2022/07/02 10:13:11;;;;;;;38.67;3.72;;;;;;;24.53;51.17;100288.66;7310347;19;130055;-39
2022/07/02 10:15:44;;;;;;;19.85;2.05;;;;;;;24.54;53.22;100290.31;7311100;19;130215;-40
2022/07/02 10:18:10;;;;;;;22.83;2.17;;;;;;;24.56;52.05;100294.44;7313334;19;129396;-41
2022/07/02 10:20:36;;;;;;;15.65;1.70;;;;;;;24.59;51.35;100293.34;7311677;19;130330;-41
2022/07/02 10:23:03;;;;;;;30.17;3.00;;;;;;;24.58;52.23;100292.50;7308595;19;129177;-40
2022/07/02 10:25:31;;;;;;;28.02;2.58;;;;;;;24.56;52.29;100288.38;7312276;19;129448;-38
2022/07/02 10:27:56;;;;;;;30.92;2.92;;;;;;;24.52;51.02;100287.84;7310278;19;129822;-40
2022/07/02 10:30:33;;;;;;;22.93;2.30;;;;;;;24.55;52.21;100286.69;7310566;19;129601;-38
2022/07/02 10:33:15;;;;;;;19.88;2.30;;;;;;;24.59;53.91;100277.56;7308757;19;129456;-41
2022/07/02 10:35:42;;;;;;;21.67;2.60;;;;;;;24.55;51.41;100281.44;7310963;19;129247;-40
2022/07/02 10:38:08;;;;;;;24.05;2.33;;;;;;;24.54;51.50;100274.53;7310163;19;129424;-40
2022/07/02 10:40:45;;;;;;;26.57;2.73;;;;;;;24.57;53.73;100275.09;7309783;19;129115;-41
2022/07/02 10:43:18;;;;;;;38.38;3.50;;;;;;;24.53;51.62;100272.91;7310466;19;130363;-38
2022/07/02 10:45:43;;;;;;;19.05;1.90;;;;;;;24.49;51.66;100270.53;7309668;19;129825;-39
2022/07/02 10:48:11;;;;;;;44.57;3.87;;;;;;;24.49;50.64;100273.16;7308201;19;130169;-41
2022/07/02 10:50:39;;;;;;;33.33;3.45;;;;;;;24.51;50.91;100265.13;7307303;19;130307;-40
2022/07/02 10:53:17;;;;;;;25.35;2.55;;;;;;;24.56;53.22;100262.09;7307351;19;129865;-41
2022/07/02 10:56:04;;;;;;;31.10;3.03;;;;;;;24.54;51.39;100274.53;7310772;19;129002;-41
2022/07/02 10:58:32;;;;;;;28.37;2.83;;;;;;;24.61;51.51;100263.31;7309339;19;129601;-40
2022/07/02 11:01:18;;;;;;;29.33;2.63;;;;;;;24.61;53.13;100259.88;7309172;19;129956;-41
2022/07/02 11:04:00;;;;;;;19.23;2.05;;;;;;;24.56;53.63;100257.63;7310447;19;130911;-41
2022/07/02 11:06:31;;;;;;;22.58;2.38;;;;;;;24.61;50.61;100259.88;7310876;19;129389;-39
2022/07/02 11:09:00;;;;;;;21.75;2.10;;;;;;;24.58;51.34;100258.34;7308390;19;129629;-40
2022/07/02 11:11:36;;;;;;;28.70;2.85;;;;;;;24.59;53.01;100254.75;7309481;19;129014;-41
2022/07/02 11:14:06;;;;;;;24.00;2.33;;;;;;;24.60;51.42;100259.03;7310156;19;129482;-41